Main page
METAR-TAF:

METAR-TAF

Airports :

RAF Fairford

Fairford, England

latitude: 51-41N, longitude: 001-47W, elevation: 87 m

Current weather observation

The report was made 18 minutes ago, at 22:40 UTC
Wind 9 kt from the East
Temperature 5°C
Humidity 100%
Pressure 996 hPa
Visibility 10 km or more
Overcast at a height of 500 ft
light rain

METAR: EGVA 212240Z AUTO 10009KT 9999 -RA OVC005 05/05 A2941 RMK AO2 RAB40 SLP965 $

Time: 22:58 (22:58 UTC)


TAF: missing

Weather observations and forecasts of more than 4000 airports (METAR and TAF reports).

The available stations are represented by yellow and red dots on the map.

Hover mouse over dot to see the name of the station.

Then click to see weather observations and forecasts.

To change the map : click on the green buttons with a black cross to zoom in, on the green button with a dash to zoom out, or on the green arrows for adjacent maps.


METAR-TAF: